createdAt,value
2022-09-23T00:00:37.078Z,12.27
2022-09-23T00:03:04.214Z,13.23
2022-09-23T00:05:31.335Z,12.32
2022-09-23T00:07:57.906Z,12.25
2022-09-23T00:10:26.155Z,12.00
2022-09-23T00:12:53.428Z,11.70
2022-09-23T00:15:19.919Z,11.98
2022-09-23T00:17:47.344Z,12.35
2022-09-23T00:20:14.454Z,12.15
2022-09-23T00:22:41.344Z,11.63
2022-09-23T00:25:09.261Z,11.95
2022-09-23T00:27:37.056Z,11.27
2022-09-23T00:30:07.187Z,12.05
2022-09-23T00:32:34.271Z,11.88
2022-09-23T00:35:00.796Z,11.63
2022-09-23T00:37:28.496Z,11.90
2022-09-23T00:39:55.521Z,11.40
2022-09-23T00:42:24.483Z,12.38
2022-09-23T00:44:54.320Z,11.90
2022-09-23T00:47:29.628Z,11.88
2022-09-23T00:50:09.957Z,12.30
2022-09-23T00:55:09.016Z,11.15
2022-09-23T00:57:37.112Z,11.68
2022-09-23T01:00:06.091Z,11.90
2022-09-23T01:02:33.204Z,12.02
2022-09-23T01:05:03.506Z,11.57
2022-09-23T01:09:58.351Z,11.50
2022-09-23T01:12:59.812Z,11.40
2022-09-23T01:15:35.078Z,11.48
2022-09-23T01:18:29.015Z,11.30
2022-09-23T01:21:10.721Z,10.75
2022-09-23T01:24:10.017Z,11.93
2022-09-23T01:27:05.483Z,11.43
2022-09-23T01:30:02.754Z,11.52
2022-09-23T01:32:43.658Z,11.52
2022-09-23T01:35:23.789Z,11.27
2022-09-23T01:37:58.864Z,11.50
2022-09-23T01:40:39.079Z,11.25
2022-09-23T01:43:28.649Z,11.00
2022-09-23T01:45:59.833Z,10.97
2022-09-23T01:48:37.063Z,11.30
2022-09-23T01:51:13.557Z,11.07
2022-09-23T01:53:50.791Z,11.18
2022-09-23T01:56:36.406Z,11.40
2022-09-23T01:59:13.140Z,10.85
2022-09-23T02:01:52.451Z,10.27
2022-09-23T02:04:37.077Z,10.77
2022-09-23T02:07:15.104Z,10.70
2022-09-23T02:09:46.514Z,11.02
2022-09-23T02:12:20.242Z,10.60
2022-09-23T02:15:19.108Z,11.13
2022-09-23T02:17:54.323Z,11.07
2022-09-23T02:20:29.954Z,10.75
2022-09-23T02:23:12.361Z,11.13
2022-09-23T02:25:56.418Z,10.77
2022-09-23T02:28:43.825Z,10.85
2022-09-23T02:31:27.914Z,10.48
2022-09-23T02:33:59.540Z,10.32
2022-09-23T02:37:01.356Z,10.55
2022-09-23T02:39:36.687Z,10.73
2022-09-23T02:42:12.662Z,11.18
2022-09-23T02:44:40.720Z,10.38
2022-09-23T02:47:07.588Z,11.07
2022-09-23T02:49:36.459Z,10.93
2022-09-23T02:52:05.514Z,10.23
2022-09-23T02:54:36.037Z,10.68
2022-09-23T02:57:05.477Z,10.85
2022-09-23T02:59:33.527Z,11.10
2022-09-23T03:02:15.163Z,11.00
2022-09-23T03:05:07.861Z,10.57
2022-09-23T03:07:49.504Z,11.45
2022-09-23T03:10:24.849Z,11.00
2022-09-23T03:13:04.813Z,10.98
2022-09-23T03:15:55.809Z,11.23
2022-09-23T03:18:31.579Z,11.20
2022-09-23T03:21:05.578Z,11.07
2022-09-23T03:23:38.475Z,11.40
2022-09-23T03:26:11.739Z,11.27
2022-09-23T03:28:43.706Z,10.40
2022-09-23T03:31:12.651Z,10.38
2022-09-23T03:33:43.633Z,10.50
2022-09-23T03:36:33.184Z,10.60
2022-09-23T03:39:06.967Z,10.83
2022-09-23T03:41:39.374Z,10.32
2022-09-23T03:44:08.126Z,10.10
2022-09-23T03:46:36.038Z,10.70
2022-09-23T03:49:16.027Z,10.52
2022-09-23T03:51:44.620Z,10.60
2022-09-23T03:54:11.661Z,10.35
2022-09-23T03:56:38.089Z,10.23
2022-09-23T03:59:04.465Z,10.50
2022-09-23T04:01:30.818Z,10.68
2022-09-23T04:03:57.129Z,10.55
2022-09-23T04:06:23.535Z,10.15
2022-09-23T04:08:50.493Z,9.90
2022-09-23T04:11:17.057Z,9.93
2022-09-23T04:13:43.456Z,9.80
2022-09-23T04:16:09.842Z,10.00
2022-09-23T04:18:36.402Z,10.20
2022-09-23T04:21:03.120Z,10.07
2022-09-23T04:23:29.835Z,10.27
2022-09-23T04:25:56.243Z,10.30
2022-09-23T04:28:22.985Z,10.25
2022-09-23T04:30:49.457Z,10.55
2022-09-23T04:33:16.507Z,9.75
2022-09-23T04:35:43.460Z,10.48
2022-09-23T04:38:12.562Z,10.50
2022-09-23T04:40:39.894Z,10.38
2022-09-23T04:43:09.474Z,11.05
2022-09-23T04:45:38.135Z,10.90
2022-09-23T04:48:04.610Z,10.25
2022-09-23T04:50:33.874Z,11.10
2022-09-23T04:53:00.261Z,11.18
2022-09-23T04:55:26.793Z,11.25
2022-09-23T04:57:53.255Z,10.65
2022-09-23T05:00:19.861Z,10.60
2022-09-23T05:02:47.910Z,10.95
2022-09-23T05:05:18.587Z,10.95
2022-09-23T05:07:44.932Z,10.35
2022-09-23T05:10:11.572Z,10.73
2022-09-23T05:12:37.914Z,10.60
2022-09-23T05:15:05.141Z,11.13
2022-09-23T05:17:31.662Z,11.00
2022-09-23T05:19:59.337Z,10.38
2022-09-23T05:23:03.198Z,10.43
2022-09-23T05:25:29.529Z,10.77
2022-09-23T05:27:55.995Z,10.65
2022-09-23T05:30:22.350Z,11.05
2022-09-23T05:32:48.677Z,10.70
2022-09-23T05:35:15.185Z,10.90
2022-09-23T05:37:41.695Z,10.88
2022-09-23T05:40:08.474Z,11.13
2022-09-23T05:42:35.024Z,10.63
2022-09-23T05:45:01.375Z,10.23
2022-09-23T05:47:27.763Z,10.73
2022-09-23T05:50:00.002Z,10.85
2022-09-23T05:52:27.062Z,10.93
2022-09-23T05:54:53.756Z,10.82
2022-09-23T05:57:21.013Z,11.60
2022-09-23T05:59:47.756Z,10.95
2022-09-23T06:02:15.100Z,10.88
2022-09-23T06:04:41.609Z,10.98
2022-09-23T06:07:08.600Z,11.40
2022-09-23T06:09:36.652Z,10.75
2022-09-23T06:12:04.737Z,11.70
2022-09-23T06:14:31.148Z,11.60
2022-09-23T06:16:57.554Z,11.63
2022-09-23T06:19:24.018Z,11.38
2022-09-23T06:21:50.380Z,11.30
2022-09-23T06:24:21.329Z,11.63
2022-09-23T06:26:49.587Z,11.32
2022-09-23T06:29:16.245Z,12.00
2022-09-23T06:31:43.284Z,11.68
2022-09-23T06:34:14.573Z,12.52
2022-09-23T06:36:46.215Z,12.20
2022-09-23T06:39:14.655Z,12.05
2022-09-23T06:41:41.559Z,12.98
2022-09-23T06:44:08.082Z,12.63
2022-09-23T06:46:36.885Z,13.38
2022-09-23T06:49:03.877Z,12.75
2022-09-23T06:51:30.526Z,12.07
2022-09-23T06:53:57.050Z,12.18
2022-09-23T06:56:23.772Z,12.82
2022-09-23T06:58:52.388Z,11.82
2022-09-23T07:01:22.389Z,12.77
2022-09-23T07:03:48.999Z,12.60
2022-09-23T07:06:15.741Z,12.88
2022-09-23T07:08:44.775Z,13.35
2022-09-23T07:11:13.483Z,13.65
2022-09-23T07:13:41.287Z,13.30
2022-09-23T07:16:09.342Z,13.43
2022-09-23T07:18:37.545Z,13.30
2022-09-23T07:21:15.166Z,13.60
2022-09-23T07:23:46.244Z,13.95
2022-09-23T07:26:13.955Z,14.55
2022-09-23T07:28:40.759Z,13.40
2022-09-23T07:31:10.412Z,13.10
2022-09-23T07:33:38.526Z,13.27
2022-09-23T07:36:14.603Z,13.82
2022-09-23T07:38:45.133Z,12.57
2022-09-23T07:41:16.212Z,13.07
2022-09-23T07:43:44.137Z,12.95
2022-09-23T07:46:14.110Z,12.60
2022-09-23T07:48:40.749Z,13.23
2022-09-23T07:51:18.401Z,11.77
2022-09-23T07:53:48.510Z,11.85
2022-09-23T07:56:15.927Z,12.30
2022-09-23T07:58:42.473Z,12.45
2022-09-23T08:01:10.733Z,11.77
2022-09-23T08:03:38.817Z,11.30
2022-09-23T08:06:05.358Z,11.80
2022-09-23T08:08:32.020Z,11.32
2022-09-23T08:11:06.444Z,10.85
2022-09-23T08:13:33.578Z,10.48
2022-09-23T08:16:00.365Z,10.75
2022-09-23T08:18:29.567Z,10.40
2022-09-23T08:20:56.188Z,10.90
2022-09-23T08:23:23.240Z,11.05
2022-09-23T08:26:01.309Z,10.60
2022-09-23T08:28:28.544Z,9.90
2022-09-23T08:30:55.534Z,9.77
2022-09-23T08:33:23.496Z,9.98
2022-09-23T08:35:51.096Z,9.68
2022-09-23T08:38:17.884Z,9.70
2022-09-23T08:40:48.498Z,10.30
2022-09-23T08:43:27.550Z,9.80
2022-09-23T08:45:57.096Z,9.20
2022-09-23T08:48:29.720Z,9.88
2022-09-23T08:51:05.341Z,9.70
2022-09-23T08:53:36.781Z,9.15
2022-09-23T08:56:07.395Z,9.88
2022-09-23T08:58:39.913Z,9.50
2022-09-23T09:01:31.436Z,9.60
2022-09-23T09:04:01.067Z,9.55
2022-09-23T09:07:35.266Z,9.50
2022-09-23T09:10:15.204Z,9.02
2022-09-23T09:12:49.695Z,9.63
2022-09-23T09:15:24.810Z,9.82
2022-09-23T09:18:17.979Z,9.90
2022-09-23T09:20:59.567Z,10.00
2022-09-23T09:23:46.141Z,9.90
2022-09-23T09:26:20.834Z,9.18
2022-09-23T09:28:52.100Z,10.07
2022-09-23T09:31:47.936Z,9.95
2022-09-23T09:34:41.304Z,10.35
2022-09-23T09:37:14.697Z,9.50
2022-09-23T09:39:41.250Z,10.45
2022-09-23T09:42:22.227Z,9.80
2022-09-23T09:44:59.062Z,11.18
2022-09-23T09:48:00.450Z,9.32
2022-09-23T09:50:51.208Z,9.50
2022-09-23T09:53:24.758Z,9.65
2022-09-23T09:56:04.548Z,10.77
2022-09-23T09:58:43.710Z,9.68
2022-09-23T10:01:22.586Z,10.45
2022-09-23T10:03:55.537Z,9.88
2022-09-23T10:06:28.531Z,9.02
2022-09-23T10:11:40.147Z,9.02
2022-09-23T10:14:17.758Z,10.10
2022-09-23T10:16:47.360Z,10.02
2022-09-23T10:19:24.346Z,9.27
2022-09-23T10:21:56.919Z,9.48
2022-09-23T10:24:26.376Z,9.20
2022-09-23T10:27:11.865Z,10.05
2022-09-23T10:29:50.569Z,9.18
2022-09-23T10:32:25.874Z,10.07
2022-09-23T10:34:57.087Z,9.30
2022-09-23T10:37:55.965Z,9.10
2022-09-23T10:41:15.428Z,8.98
2022-09-23T10:44:19.623Z,9.27
2022-09-23T10:46:58.335Z,9.50
2022-09-23T10:49:46.497Z,9.73
2022-09-23T10:52:24.093Z,9.38
2022-09-23T10:55:05.745Z,8.50
2022-09-23T10:57:45.305Z,9.05
2022-09-23T11:00:22.306Z,8.93
2022-09-23T11:03:00.698Z,8.85
2022-09-23T11:05:51.022Z,9.05
2022-09-23T11:08:30.275Z,9.00
2022-09-23T11:11:11.526Z,8.90
2022-09-23T11:13:37.924Z,9.40
2022-09-23T11:16:48.918Z,8.98
2022-09-23T11:19:45.570Z,9.00
2022-09-23T11:22:15.925Z,8.65
2022-09-23T11:24:58.385Z,8.57
2022-09-23T11:27:37.411Z,8.57
2022-09-23T11:30:03.870Z,8.88
2022-09-23T11:32:42.214Z,9.30
2022-09-23T11:35:16.787Z,8.82
2022-09-23T11:37:49.625Z,9.00
2022-09-23T11:40:35.105Z,8.70
2022-09-23T11:43:24.166Z,9.10
2022-09-23T11:46:00.837Z,8.65
2022-09-23T11:48:38.684Z,8.90
2022-09-23T11:51:12.872Z,9.40
2022-09-23T11:54:01.854Z,10.50
2022-09-23T11:56:37.037Z,10.50
2022-09-23T11:59:13.724Z,9.98
2022-09-23T12:01:47.193Z,8.88
2022-09-23T12:04:51.913Z,8.90
2022-09-23T12:07:29.085Z,8.60
2022-09-23T12:09:59.751Z,9.20
2022-09-23T12:12:56.032Z,8.60
2022-09-23T12:15:43.329Z,7.97
2022-09-23T12:18:29.029Z,8.00
2022-09-23T12:21:45.865Z,7.82
2022-09-23T12:24:40.228Z,8.20
2022-09-23T12:27:16.418Z,10.15
2022-09-23T12:29:42.988Z,10.38
2022-09-23T12:32:17.744Z,10.50
2022-09-23T12:34:48.976Z,8.70
2022-09-23T12:37:26.716Z,8.85
2022-09-23T12:39:54.061Z,8.70
2022-09-23T12:42:22.220Z,8.98
2022-09-23T12:44:50.540Z,9.18
2022-09-23T12:47:21.071Z,8.50
2022-09-23T12:49:48.240Z,8.65
2022-09-23T12:52:17.814Z,8.82
2022-09-23T12:54:45.276Z,9.00
2022-09-23T12:57:13.694Z,9.05
2022-09-23T13:00:13.758Z,9.10
2022-09-23T13:05:27.104Z,8.90
2022-09-23T13:08:03.684Z,8.90
2022-09-23T13:10:39.384Z,8.73
2022-09-23T13:13:07.250Z,8.95
2022-09-23T13:15:35.940Z,9.40
2022-09-23T13:18:20.665Z,8.80
2022-09-23T13:20:56.785Z,8.88
2022-09-23T13:23:24.791Z,9.23
2022-09-23T13:25:57.390Z,9.18
2022-09-23T13:28:26.865Z,9.00
2022-09-23T13:30:53.175Z,9.10
2022-09-23T13:33:36.754Z,8.90
2022-09-23T13:36:10.037Z,8.80
2022-09-23T13:38:36.399Z,9.20
2022-09-23T13:41:07.802Z,8.90
2022-09-23T13:43:42.582Z,9.15
2022-09-23T13:46:23.756Z,8.80
2022-09-23T13:48:55.033Z,8.95
2022-09-23T13:51:33.465Z,9.02
2022-09-23T13:54:01.813Z,9.05
2022-09-23T13:56:31.239Z,9.10
2022-09-23T13:59:22.657Z,9.27
2022-09-23T14:01:49.119Z,8.95
2022-09-23T14:04:25.903Z,8.52
2022-09-23T14:06:53.752Z,8.90
2022-09-23T14:09:24.676Z,8.80
2022-09-23T14:11:51.981Z,8.60
2022-09-23T14:14:18.473Z,9.15
2022-09-23T14:16:44.951Z,8.60
2022-09-23T14:19:20.937Z,8.90
2022-09-23T14:21:53.535Z,9.07
2022-09-23T14:24:19.917Z,8.68
2022-09-23T14:26:55.378Z,8.50
2022-09-23T14:29:33.643Z,8.80
2022-09-23T14:32:06.689Z,8.25
2022-09-23T14:34:41.518Z,8.60
2022-09-23T14:37:42.056Z,8.77
2022-09-23T14:40:48.973Z,8.88
2022-09-23T14:43:27.665Z,9.00
2022-09-23T14:45:56.364Z,8.70
2022-09-23T14:48:30.689Z,8.93
2022-09-23T14:51:03.855Z,9.20
2022-09-23T14:53:40.667Z,9.10
2022-09-23T14:56:07.097Z,9.05
2022-09-23T14:58:52.060Z,9.20
2022-09-23T15:01:39.595Z,9.10
2022-09-23T15:04:29.526Z,9.02
2022-09-23T15:07:00.834Z,9.13
2022-09-23T15:09:34.848Z,9.05
2022-09-23T15:12:06.202Z,8.50
2022-09-23T15:14:41.062Z,9.20
2022-09-23T15:17:24.867Z,8.77
2022-09-23T15:19:58.178Z,9.00
2022-09-23T15:22:25.409Z,9.15
2022-09-23T15:24:53.594Z,9.32
2022-09-23T15:27:30.686Z,8.85
2022-09-23T15:30:16.231Z,9.05
2022-09-23T15:32:46.975Z,9.02
2022-09-23T15:35:15.838Z,8.98
2022-09-23T15:37:44.071Z,9.23
2022-09-23T15:40:21.053Z,8.50
2022-09-23T15:42:51.419Z,9.57
2022-09-23T15:45:21.809Z,9.10
2022-09-23T15:47:50.267Z,9.40
2022-09-23T15:50:17.576Z,9.07
2022-09-23T15:52:45.010Z,9.20
2022-09-23T15:55:23.458Z,9.00
2022-09-23T15:57:49.991Z,9.20
2022-09-23T16:00:16.865Z,9.32
2022-09-23T16:02:46.818Z,9.45
2022-09-23T16:05:21.095Z,9.48
2022-09-23T16:07:48.405Z,9.32
2022-09-23T16:10:15.483Z,10.23
2022-09-23T16:12:42.007Z,9.60
2022-09-23T16:15:14.954Z,10.05
2022-09-23T16:17:43.314Z,9.70
2022-09-23T16:20:10.474Z,9.73
2022-09-23T16:22:37.250Z,9.65
2022-09-23T16:25:05.296Z,9.00
2022-09-23T16:27:31.767Z,9.48
2022-09-23T16:29:58.142Z,9.63
2022-09-23T16:32:24.842Z,10.02
2022-09-23T16:34:51.451Z,9.50
2022-09-23T16:37:21.273Z,9.05
2022-09-23T16:39:49.723Z,9.50
2022-09-23T16:42:16.220Z,9.95
2022-09-23T16:44:42.711Z,10.13
2022-09-23T16:47:09.519Z,9.57
2022-09-23T16:49:35.907Z,9.52
2022-09-23T16:52:02.503Z,11.57
2022-09-23T16:54:28.994Z,10.90
2022-09-23T16:56:55.461Z,11.05
2022-09-23T16:59:21.924Z,10.30
2022-09-23T17:02:06.814Z,9.85
2022-09-23T17:04:33.408Z,9.88
2022-09-23T17:06:59.887Z,9.80
2022-09-23T17:09:28.744Z,9.55
2022-09-23T17:12:11.914Z,9.80
2022-09-23T17:14:38.375Z,9.73
2022-09-23T17:17:04.884Z,10.35
2022-09-23T17:19:31.486Z,10.20
2022-09-23T17:21:57.883Z,10.23
2022-09-23T17:24:24.448Z,10.18
2022-09-23T17:26:53.634Z,10.30
2022-09-23T17:29:20.252Z,10.30
2022-09-23T17:31:46.824Z,10.55
2022-09-23T17:34:13.437Z,10.20
2022-09-23T17:36:40.682Z,10.63
2022-09-23T17:39:07.377Z,10.25
2022-09-23T17:41:34.016Z,10.40
2022-09-23T17:44:00.712Z,10.27
2022-09-23T17:46:28.840Z,10.48
2022-09-23T17:48:55.721Z,10.38
2022-09-23T17:51:23.299Z,9.70
2022-09-23T17:53:50.202Z,9.80
2022-09-23T17:56:27.173Z,10.05
2022-09-23T17:58:54.062Z,10.50
2022-09-23T18:01:25.511Z,10.55
2022-09-23T18:04:03.934Z,10.05
2022-09-23T18:06:32.702Z,10.15
2022-09-23T18:09:01.658Z,9.50
2022-09-23T18:11:29.802Z,10.38
2022-09-23T18:14:20.618Z,10.50
2022-09-23T18:16:52.424Z,10.48
2022-09-23T18:19:20.823Z,9.75
2022-09-23T18:21:50.623Z,10.95
2022-09-23T18:24:33.985Z,10.75
2022-09-23T18:27:01.381Z,10.43
2022-09-23T18:29:28.024Z,10.60
2022-09-23T18:31:54.570Z,10.32
2022-09-23T18:34:21.314Z,10.75
2022-09-23T18:36:47.678Z,10.20
2022-09-23T18:39:14.967Z,10.00
2022-09-23T18:41:41.466Z,11.18
2022-09-23T18:44:08.226Z,10.93
2022-09-23T18:46:34.814Z,11.20
2022-09-23T18:49:19.637Z,11.13
2022-09-23T18:51:55.498Z,11.13
2022-09-23T18:54:27.594Z,10.63
2022-09-23T18:56:55.026Z,10.30
2022-09-23T18:59:25.946Z,11.90
2022-09-23T19:01:55.447Z,11.70
2022-09-23T19:04:23.677Z,10.68
2022-09-23T19:06:50.187Z,11.88
2022-09-23T19:09:17.656Z,11.70
2022-09-23T19:11:44.309Z,12.13
2022-09-23T19:14:11.830Z,11.18
2022-09-23T19:16:41.157Z,10.98
2022-09-23T19:19:08.527Z,10.25
2022-09-23T19:21:35.307Z,11.50
2022-09-23T19:24:07.416Z,10.70
2022-09-23T19:26:39.231Z,10.40
2022-09-23T19:29:08.211Z,10.77
2022-09-23T19:31:41.438Z,10.45
2022-09-23T19:34:15.477Z,11.18
2022-09-23T19:36:44.917Z,10.57
2022-09-23T19:39:22.965Z,10.70
2022-09-23T19:41:50.980Z,10.65
2022-09-23T19:44:19.758Z,10.88
2022-09-23T19:46:51.707Z,11.93
2022-09-23T19:49:21.383Z,12.82
2022-09-23T19:51:47.760Z,12.55
2022-09-23T19:54:20.573Z,11.95
2022-09-23T19:56:48.600Z,12.40
2022-09-23T19:59:18.765Z,11.77
2022-09-23T20:01:45.642Z,11.95
2022-09-23T20:04:12.167Z,11.93
2022-09-23T20:06:38.821Z,11.35
2022-09-23T20:09:05.896Z,10.98
2022-09-23T20:11:33.363Z,11.40
2022-09-23T20:14:02.210Z,11.50
2022-09-23T20:16:32.009Z,11.05
2022-09-23T20:18:59.843Z,11.80
2022-09-23T20:21:28.175Z,11.40
2022-09-23T20:23:54.854Z,11.38
2022-09-23T20:26:40.003Z,11.60
2022-09-23T20:29:06.687Z,11.13
2022-09-23T20:31:34.360Z,11.77
2022-09-23T20:34:05.290Z,11.88
2022-09-23T20:36:32.023Z,11.30
2022-09-23T20:39:00.436Z,12.20
2022-09-23T20:41:29.628Z,11.77
2022-09-23T20:43:59.428Z,11.90
2022-09-23T20:46:26.934Z,11.70
2022-09-23T20:48:54.253Z,11.70
2022-09-23T20:51:20.975Z,12.25
2022-09-23T20:53:52.708Z,11.55
2022-09-23T20:56:20.655Z,11.10
2022-09-23T20:58:48.481Z,11.25
2022-09-23T21:01:15.851Z,11.70
2022-09-23T21:03:44.546Z,11.48
2022-09-23T21:06:13.827Z,10.98
2022-09-23T21:08:41.319Z,11.73
2022-09-23T21:11:11.041Z,12.00
2022-09-23T21:13:37.900Z,12.30
2022-09-23T21:16:09.536Z,12.32
2022-09-23T21:18:37.194Z,11.68
2022-09-23T21:21:05.347Z,12.55
2022-09-23T21:23:38.002Z,11.65
2022-09-23T21:26:06.586Z,12.13
2022-09-23T21:28:35.810Z,12.50
2022-09-23T21:31:05.979Z,11.80
2022-09-23T21:33:33.017Z,11.93
2022-09-23T21:36:06.167Z,11.15
2022-09-23T21:38:37.072Z,12.02
2022-09-23T21:41:06.616Z,11.77
2022-09-23T21:43:35.943Z,12.07
2022-09-23T21:46:04.771Z,11.38
2022-09-23T21:48:33.535Z,12.02
2022-09-23T21:51:25.040Z,12.25
2022-09-23T21:53:54.254Z,12.57
2022-09-23T21:56:23.001Z,14.00
2022-09-23T21:58:50.059Z,12.70
2022-09-23T22:01:22.427Z,12.38
2022-09-23T22:03:54.648Z,12.15
2022-09-23T22:06:24.075Z,12.27
2022-09-23T22:08:53.194Z,12.03
2022-09-23T22:11:41.411Z,12.65
2022-09-23T22:14:10.821Z,11.82
2022-09-23T22:16:37.404Z,12.97
2022-09-23T22:19:06.859Z,12.60
2022-09-23T22:21:35.456Z,11.67
2022-09-23T22:24:03.100Z,11.80
2022-09-23T22:26:32.532Z,11.43
2022-09-23T22:29:17.567Z,11.73
2022-09-23T22:32:02.552Z,11.77
2022-09-23T22:34:48.473Z,11.88
2022-09-23T22:37:18.043Z,11.57
2022-09-23T22:39:45.140Z,12.15
2022-09-23T22:42:13.053Z,12.73
2022-09-23T22:44:39.915Z,12.32
2022-09-23T22:47:06.406Z,11.80
2022-09-23T22:49:32.842Z,12.77
2022-09-23T22:51:59.735Z,12.63
2022-09-23T22:54:33.465Z,12.27
2022-09-23T22:57:03.092Z,11.70
2022-09-23T22:59:29.744Z,12.57
2022-09-23T23:01:57.218Z,11.85
2022-09-23T23:04:23.851Z,11.65
2022-09-23T23:06:50.304Z,12.25
2022-09-23T23:09:18.166Z,12.07
2022-09-23T23:11:45.211Z,11.38
2022-09-23T23:14:13.029Z,12.18
2022-09-23T23:16:41.854Z,12.18
2022-09-23T23:19:13.437Z,12.45
2022-09-23T23:21:43.735Z,11.55
2022-09-23T23:26:40.316Z,11.55
2022-09-23T23:29:06.700Z,11.50
2022-09-23T23:31:33.394Z,12.25
2022-09-23T23:33:59.775Z,13.00
2022-09-23T23:36:26.142Z,12.15
2022-09-23T23:38:52.569Z,12.68
2022-09-23T23:41:22.545Z,12.55
2022-09-23T23:44:01.101Z,12.50
2022-09-23T23:46:29.707Z,11.98
2022-09-23T23:48:57.345Z,12.55
2022-09-23T23:51:26.368Z,12.52
2022-09-23T23:53:54.272Z,13.07
2022-09-23T23:56:23.394Z,13.40
2022-09-23T23:59:01.110Z,12.57
